Terminal Aerodrome Forecast
Issued by NWS

Home | Current Version | Previous Version | Text Only | Print | Product List | Glossary On
Versions: 1 2 3 4 5 6 7 8 9 10 11 12 13 14 15 16 17 18 19 20 21 22 23 24 25 26 27 28 29 30 31 32 33 34 35 36 37 38 39 40 41 42 43 44 45 46 47 48 49 50
000
FTAK31 PANC 270540
TAFADL
TAF
PADL 270540Z 2706/2806 36007KT P6SM SCT015 OVC025
     FM271200 07007KT P6SM FEW008 SCT015 BKN025
     FM280000 10008KT P6SM VCSH SCT015 OVC025
      AMD LTD TO CLD VIS AND WIND 2706/2716=

USA.gov is the U.S. government's official web portal to all federal, state and local government web resources and services.